Time;durP1;ratioP1;P1;durP2;ratioP2;P2;SDS_P1;SDS_P2;PMS_P1;PMS_P2;Temp;Humidity;BMP_temperature;BMP_pressure;BME280_temperature;BME280_humidity;BME280_pressure;Samples;Min_cycle;Max_cycle;Signal;HPM_P1;HPM_P2
2021/05/29 00:00:42;;;;;;;3.13;2.92;;;17.00;51.50;;;;;;1486683;39;20039;-61
2021/05/29 00:02:04;;;;;;;3.28;2.92;;;17.00;51.70;;;;;;1486202;40;20025;-60
2021/05/29 00:03:26;;;;;;;3.90;3.30;;;17.00;51.70;;;;;;1486897;39;20068;-60
2021/05/29 00:04:48;;;;;;;3.55;3.22;;;17.00;51.70;;;;;;1484071;40;20032;-60
2021/05/29 00:06:09;;;;;;;3.63;3.33;;;16.90;51.70;;;;;;1485818;39;20028;-60
2021/05/29 00:07:30;;;;;;;4.28;3.28;;;16.90;51.70;;;;;;1487156;40;20032;-60
2021/05/29 00:08:51;;;;;;;4.95;3.10;;;16.90;51.80;;;;;;1486948;39;20047;-60
2021/05/29 00:10:12;;;;;;;3.63;3.33;;;16.90;51.90;;;;;;1481854;40;20138;-60
2021/05/29 00:11:33;;;;;;;3.58;3.28;;;16.90;51.80;;;;;;1479809;40;20084;-60
2021/05/29 00:12:54;;;;;;;3.70;3.25;;;16.90;51.80;;;;;;1484003;39;20320;-60
2021/05/29 00:14:15;;;;;;;3.60;3.30;;;16.90;51.90;;;;;;1477795;40;20065;-60
2021/05/29 00:15:36;;;;;;;3.45;3.15;;;16.80;51.90;;;;;;1480958;40;20040;-60
2021/05/29 00:16:57;;;;;;;3.92;3.28;;;16.80;52.10;;;;;;1483697;40;20054;-60
2021/05/29 00:18:19;;;;;;;3.78;3.47;;;16.80;52.20;;;;;;1483162;40;20036;-61
2021/05/29 00:19:40;;;;;;;7.07;4.15;;;16.80;52.20;;;;;;1481545;40;20040;-59
2021/05/29 00:21:01;;;;;;;3.72;3.30;;;16.80;52.20;;;;;;1482216;40;20032;-60
2021/05/29 00:22:21;;;;;;;3.30;3.00;;;16.80;52.20;;;;;;1483994;40;20369;-61
2021/05/29 00:23:43;;;;;;;3.50;3.15;;;16.70;52.10;;;;;;1482353;40;20036;-60
2021/05/29 00:25:05;;;;;;;5.60;3.28;;;16.70;52.20;;;;;;1480896;40;20408;-60
2021/05/29 00:26:26;;;;;;;3.58;3.17;;;16.70;52.40;;;;;;1480869;40;20067;-61
2021/05/29 00:27:46;;;;;;;3.85;3.33;;;16.70;52.40;;;;;;1480100;40;20029;-60
2021/05/29 00:29:07;;;;;;;3.95;3.30;;;16.70;52.40;;;;;;1483315;40;20488;-61
2021/05/29 00:30:29;;;;;;;3.90;3.50;;;16.70;52.30;;;;;;1480691;40;20037;-60
2021/05/29 00:31:49;;;;;;;3.45;3.15;;;16.70;52.40;;;;;;1481905;40;20043;-60
2021/05/29 00:33:11;;;;;;;3.63;3.30;;;16.70;52.40;;;;;;1482984;40;20037;-61
2021/05/29 00:34:31;;;;;;;3.80;3.05;;;16.60;52.30;;;;;;1481762;40;20031;-61
2021/05/29 00:35:55;;;;;;;3.55;3.00;;;16.60;52.40;;;;;;1481977;39;20029;-60
2021/05/29 00:37:16;;;;;;;3.92;3.08;;;16.60;52.60;;;;;;1481478;40;20367;-61
2021/05/29 00:38:36;;;;;;;3.75;3.42;;;16.60;52.60;;;;;;1483176;40;20273;-61
2021/05/29 00:39:57;;;;;;;3.83;3.25;;;16.60;52.70;;;;;;1481936;40;20021;-61
2021/05/29 00:41:19;;;;;;;5.32;3.50;;;16.60;52.70;;;;;;1481771;40;20040;-61
2021/05/29 00:42:40;;;;;;;5.85;3.70;;;16.60;52.80;;;;;;1481974;40;20047;-61
2021/05/29 00:44:01;;;;;;;4.10;3.15;;;16.60;52.90;;;;;;1481659;40;20269;-61
2021/05/29 00:45:22;;;;;;;5.18;3.53;;;16.60;52.90;;;;;;1481797;40;20032;-61
2021/05/29 00:46:43;;;;;;;3.70;3.40;;;16.60;52.90;;;;;;1482035;40;20037;-61
2021/05/29 00:48:05;;;;;;;3.65;3.35;;;16.50;53.00;;;;;;1481544;40;20456;-61
2021/05/29 00:49:26;;;;;;;3.88;3.47;;;16.50;52.90;;;;;;1481342;40;20069;-60
2021/05/29 00:50:49;;;;;;;3.83;3.30;;;16.50;52.90;;;;;;1482159;40;20029;-61
2021/05/29 00:52:12;;;;;;;3.90;3.50;;;16.50;53.00;;;;;;1482028;40;20134;-60
2021/05/29 00:53:35;;;;;;;4.10;3.67;;;16.50;53.20;;;;;;1482166;40;20033;-61
2021/05/29 00:54:56;;;;;;;4.40;3.45;;;16.40;53.20;;;;;;1482331;40;20044;-61
2021/05/29 00:56:17;;;;;;;3.72;3.38;;;16.50;53.20;;;;;;1484280;40;20047;-61
2021/05/29 00:57:45;;;;;;;5.40;3.30;;;16.40;53.30;;;;;;1482966;40;20037;-60
2021/05/29 00:59:09;;;;;;;6.28;3.47;;;16.40;53.40;;;;;;1480486;40;20057;-61
2021/05/29 01:00:30;;;;;;;5.38;3.45;;;16.40;53.40;;;;;;1482974;40;20114;-60
2021/05/29 01:01:51;;;;;;;4.10;3.67;;;16.40;53.30;;;;;;1482323;40;20025;-60
2021/05/29 01:03:12;;;;;;;4.03;3.63;;;16.40;53.50;;;;;;1483498;40;20264;-59
2021/05/29 01:04:33;;;;;;;5.28;3.80;;;16.40;53.60;;;;;;1481094;40;20047;-61
2021/05/29 01:05:55;;;;;;;6.38;3.75;;;16.40;53.60;;;;;;1482292;39;20033;-60
2021/05/29 01:07:17;;;;;;;4.53;3.80;;;16.40;53.50;;;;;;1482864;40;20118;-61
2021/05/29 01:08:38;;;;;;;4.03;3.58;;;16.30;53.40;;;;;;1481373;40;20028;-60
2021/05/29 01:10:00;;;;;;;4.22;3.78;;;16.30;53.40;;;;;;1481782;40;20308;-61
2021/05/29 01:11:21;;;;;;;4.97;3.72;;;16.30;53.40;;;;;;1481350;40;20149;-60
2021/05/29 01:12:42;;;;;;;5.20;3.90;;;16.30;53.50;;;;;;1482505;40;20067;-61
2021/05/29 01:14:03;;;;;;;3.67;2.95;;;16.20;53.50;;;;;;1481035;40;20037;-60
2021/05/29 01:15:25;;;;;;;4.72;3.45;;;16.20;53.50;;;;;;1483014;40;20035;-60
2021/05/29 01:17:01;;;;;;;3.65;3.20;;;16.20;53.50;;;;;;1481946;40;20033;-61
2021/05/29 01:18:21;;;;;;;4.13;3.28;;;16.20;53.80;;;;;;1482891;40;20033;-60
2021/05/29 01:19:42;;;;;;;3.40;3.10;;;16.20;53.50;;;;;;1478266;40;20107;-60
2021/05/29 01:21:05;;;;;;;3.72;3.33;;;16.20;53.60;;;;;;1477345;40;20046;-61
2021/05/29 01:22:53;;;;;;;3.45;3.13;;;16.20;53.60;;;;;;1482749;40;20060;-61
2021/05/29 01:24:14;;;;;;;3.67;3.38;;;16.20;53.90;;;;;;1481761;40;20025;-60
2021/05/29 01:25:38;;;;;;;4.30;3.58;;;16.20;53.50;;;;;;1482933;40;20074;-61
2021/05/29 01:27:00;;;;;;;4.32;3.83;;;16.20;53.60;;;;;;1481467;40;20089;-60
2021/05/29 01:28:26;;;;;;;4.28;3.78;;;16.10;53.60;;;;;;1481459;40;20108;-61
2021/05/29 01:29:47;;;;;;;4.10;3.63;;;16.10;53.70;;;;;;1482633;40;20069;-60
2021/05/29 01:31:09;;;;;;;4.43;3.78;;;16.10;53.70;;;;;;1479481;40;20149;-62
2021/05/29 01:32:33;;;;;;;3.92;3.17;;;16.10;53.80;;;;;;1482403;40;20186;-61
2021/05/29 01:33:59;;;;;;;4.55;3.97;;;16.10;53.70;;;;;;1481263;40;20262;-60
2021/05/29 01:35:21;;;;;;;5.35;3.80;;;16.10;53.90;;;;;;1481059;40;20023;-61
2021/05/29 01:36:42;;;;;;;4.53;3.72;;;16.10;53.80;;;;;;1481629;40;20552;-60
2021/05/29 01:38:03;;;;;;;4.22;3.83;;;16.00;53.80;;;;;;1481683;40;20456;-61
2021/05/29 01:39:24;;;;;;;6.28;4.28;;;16.00;53.80;;;;;;1481478;40;20032;-61
2021/05/29 01:40:45;;;;;;;4.40;3.58;;;16.00;53.70;;;;;;1480861;40;20029;-60
2021/05/29 01:42:06;;;;;;;4.30;3.90;;;16.00;53.70;;;;;;1479525;40;20057;-60
2021/05/29 01:43:28;;;;;;;5.70;4.03;;;16.00;53.90;;;;;;1482936;40;20514;-60
2021/05/29 01:44:49;;;;;;;4.38;3.97;;;16.00;53.90;;;;;;1481560;40;20025;-60
2021/05/29 01:46:12;;;;;;;5.50;4.10;;;16.00;53.90;;;;;;1481694;40;20033;-61
2021/05/29 01:47:34;;;;;;;5.82;4.13;;;15.90;54.00;;;;;;1483041;40;20033;-60
2021/05/29 01:48:55;;;;;;;5.72;4.18;;;15.90;54.00;;;;;;1482988;40;20039;-61
2021/05/29 01:50:17;;;;;;;4.72;3.83;;;15.90;54.10;;;;;;1481947;40;20089;-61
2021/05/29 01:51:38;;;;;;;4.05;3.65;;;15.90;54.20;;;;;;1483164;40;20030;-61
2021/05/29 01:53:03;;;;;;;3.80;3.40;;;15.90;54.20;;;;;;1480855;40;20029;-61
2021/05/29 01:54:24;;;;;;;4.78;3.33;;;15.90;54.20;;;;;;1482886;40;20483;-60
2021/05/29 01:55:47;;;;;;;3.97;3.63;;;15.80;54.20;;;;;;1482476;40;20021;-61
2021/05/29 01:57:08;;;;;;;4.93;3.63;;;15.80;54.30;;;;;;1481936;40;20091;-61
2021/05/29 01:58:29;;;;;;;5.95;3.25;;;15.80;54.20;;;;;;1481288;40;20278;-61
2021/05/29 01:59:51;;;;;;;3.70;3.38;;;15.80;54.20;;;;;;1481702;40;20369;-61
2021/05/29 02:01:14;;;;;;;3.78;3.42;;;15.80;54.30;;;;;;1483214;40;20047;-60
2021/05/29 02:02:35;;;;;;;4.07;3.67;;;15.80;54.30;;;;;;1482294;40;20356;-60
2021/05/29 02:03:56;;;;;;;5.03;3.30;;;15.80;54.30;;;;;;1480879;40;20130;-61
2021/05/29 02:05:22;;;;;;;3.60;3.30;;;15.70;54.30;;;;;;1482523;40;20309;-61
2021/05/29 02:06:43;;;;;;;5.45;4.18;;;15.70;54.30;;;;;;1483581;40;20021;-61
2021/05/29 02:08:06;;;;;;;5.90;3.90;;;15.70;54.20;;;;;;1481120;40;20033;-61
2021/05/29 02:09:27;;;;;;;4.47;3.85;;;15.70;54.30;;;;;;1482273;40;20021;-60
2021/05/29 02:10:49;;;;;;;4.40;3.97;;;15.70;54.20;;;;;;1480776;40;20030;-60
2021/05/29 02:12:11;;;;;;;5.03;3.90;;;15.70;54.30;;;;;;1482264;40;20282;-60
2021/05/29 02:13:38;;;;;;;3.97;3.45;;;15.70;54.30;;;;;;1483786;40;20094;-61
2021/05/29 02:14:58;;;;;;;4.32;3.95;;;15.60;54.40;;;;;;1482168;40;20017;-61
2021/05/29 02:16:19;;;;;;;4.50;4.05;;;15.70;54.40;;;;;;1481604;40;20604;-61
2021/05/29 02:17:41;;;;;;;5.60;4.05;;;15.60;55.00;;;;;;1481716;40;20118;-60
2021/05/29 02:19:02;;;;;;;4.57;3.85;;;15.60;54.60;;;;;;1483802;39;20029;-60
2021/05/29 02:20:50;;;;;;;6.70;4.72;;;15.60;54.70;;;;;;1483237;40;20068;-61
2021/05/29 02:22:11;;;;;;;4.70;4.00;;;15.60;55.20;;;;;;1483933;40;20284;-61
2021/05/29 02:23:35;;;;;;;9.30;4.03;;;15.60;54.60;;;;;;1481681;40;20068;-61
2021/05/29 02:24:55;;;;;;;5.22;3.80;;;15.60;54.70;;;;;;1478395;40;20294;-61
2021/05/29 02:26:19;;;;;;;4.65;3.70;;;15.50;54.60;;;;;;1478597;40;20041;-61
2021/05/29 02:27:40;;;;;;;5.78;4.20;;;15.50;54.80;;;;;;1483159;40;20036;-60
2021/05/29 02:29:01;;;;;;;5.10;3.95;;;15.50;54.80;;;;;;1483225;40;20047;-60
2021/05/29 02:30:23;;;;;;;4.30;3.90;;;15.50;54.80;;;;;;1482555;40;20025;-61
2021/05/29 02:31:43;;;;;;;4.63;4.05;;;15.50;54.80;;;;;;1483688;40;20447;-61
2021/05/29 02:33:05;;;;;;;5.28;4.18;;;15.50;54.90;;;;;;1483659;40;20032;-61
2021/05/29 02:34:26;;;;;;;4.90;4.45;;;15.40;55.00;;;;;;1482248;40;20031;-61
2021/05/29 02:35:47;;;;;;;4.25;3.85;;;15.40;55.00;;;;;;1482132;40;20440;-61
2021/05/29 02:37:08;;;;;;;4.82;3.88;;;15.40;55.10;;;;;;1481993;40;20037;-60
2021/05/29 02:38:30;;;;;;;6.68;4.45;;;15.40;55.10;;;;;;1482479;40;20324;-61
2021/05/29 02:39:51;;;;;;;4.43;4.03;;;15.40;55.00;;;;;;1481967;40;20304;-61
2021/05/29 02:41:13;;;;;;;4.35;3.95;;;15.40;55.10;;;;;;1481643;40;20041;-61
2021/05/29 02:42:34;;;;;;;4.93;4.38;;;15.30;55.20;;;;;;1482724;40;20023;-61
2021/05/29 02:43:54;;;;;;;4.50;3.78;;;15.30;55.20;;;;;;1482534;40;20103;-61
2021/05/29 02:45:15;;;;;;;5.00;4.13;;;15.30;55.20;;;;;;1482608;40;20040;-60
2021/05/29 02:46:36;;;;;;;5.07;3.90;;;15.30;55.10;;;;;;1483881;40;20765;-61
2021/05/29 02:47:57;;;;;;;5.05;4.22;;;15.30;55.10;;;;;;1481420;40;20033;-61
2021/05/29 02:49:19;;;;;;;4.75;4.00;;;15.30;55.10;;;;;;1481315;40;20033;-61
2021/05/29 02:50:41;;;;;;;4.40;4.00;;;15.30;55.10;;;;;;1482971;40;20036;-61
2021/05/29 02:52:02;;;;;;;4.45;4.05;;;15.30;55.20;;;;;;1481588;40;20044;-61
2021/05/29 02:53:23;;;;;;;4.72;3.83;;;15.20;55.10;;;;;;1482825;40;20032;-61
2021/05/29 02:54:44;;;;;;;4.45;3.92;;;15.20;55.10;;;;;;1482588;40;20573;-61
2021/05/29 02:56:05;;;;;;;4.72;4.10;;;15.20;55.10;;;;;;1481392;40;20032;-61
2021/05/29 02:57:26;;;;;;;5.28;4.10;;;15.20;55.20;;;;;;1483176;40;20129;-61
2021/05/29 02:58:47;;;;;;;4.88;4.40;;;15.20;55.30;;;;;;1481988;40;20041;-60
2021/05/29 03:00:10;;;;;;;5.22;4.65;;;15.20;55.30;;;;;;1480565;40;20100;-61
2021/05/29 03:01:31;;;;;;;5.68;4.35;;;15.20;55.40;;;;;;1484038;40;20037;-61
2021/05/29 03:02:52;;;;;;;5.80;4.18;;;15.10;55.30;;;;;;1483118;40;20040;-61
2021/05/29 03:04:13;;;;;;;5.30;4.10;;;15.10;55.30;;;;;;1482310;40;20029;-61
2021/05/29 03:05:35;;;;;;;4.82;4.32;;;15.10;55.30;;;;;;1483406;40;20122;-60
2021/05/29 03:06:56;;;;;;;4.97;4.22;;;15.10;55.30;;;;;;1481777;40;20047;-61
2021/05/29 03:08:19;;;;;;;7.60;4.97;;;15.10;55.30;;;;;;1483851;40;20080;-61
2021/05/29 03:09:40;;;;;;;5.93;4.60;;;15.10;55.40;;;;;;1480493;40;20032;-60
2021/05/29 03:11:01;;;;;;;6.50;4.85;;;15.10;55.40;;;;;;1482419;39;20029;-60
2021/05/29 03:12:22;;;;;;;6.97;5.25;;;15.00;55.40;;;;;;1484150;40;20059;-60
2021/05/29 03:13:43;;;;;;;7.00;5.47;;;15.00;55.40;;;;;;1482300;40;20036;-60
2021/05/29 03:15:10;;;;;;;9.15;5.50;;;15.00;55.40;;;;;;1482999;40;20028;-60
2021/05/29 03:16:31;;;;;;;8.05;4.95;;;15.00;55.60;;;;;;1482099;40;20087;-61
2021/05/29 03:17:53;;;;;;;5.85;4.65;;;14.90;55.70;;;;;;1482461;39;20041;-60
2021/05/29 03:19:15;;;;;;;6.13;5.43;;;15.00;55.80;;;;;;1481947;40;20028;-61
2021/05/29 03:20:36;;;;;;;5.75;5.13;;;14.90;55.80;;;;;;1482790;40;20037;-60
2021/05/29 03:21:57;;;;;;;7.15;6.13;;;14.90;55.80;;;;;;1481782;40;20475;-60
2021/05/29 03:23:18;;;;;;;7.78;6.05;;;14.90;55.90;;;;;;1482152;40;20046;-62
2021/05/29 03:24:39;;;;;;;6.15;5.43;;;14.90;56.10;;;;;;1482902;40;20036;-60
2021/05/29 03:26:00;;;;;;;7.03;5.55;;;14.90;56.20;;;;;;1482030;40;20029;-60
2021/05/29 03:27:21;;;;;;;5.63;4.75;;;14.90;56.20;;;;;;1484829;39;20039;-60
2021/05/29 03:28:42;;;;;;;6.07;4.80;;;14.90;56.20;;;;;;1481217;40;20126;-60
2021/05/29 03:30:07;;;;;;;8.40;5.47;;;14.90;56.20;;;;;;1481066;40;20093;-60
2021/05/29 03:31:28;;;;;;;5.93;5.07;;;14.90;56.30;;;;;;1482084;40;20040;-60
2021/05/29 03:32:50;;;;;;;6.15;5.53;;;14.90;56.30;;;;;;1482197;40;20025;-60
2021/05/29 03:34:11;;;;;;;8.75;5.60;;;14.80;56.20;;;;;;1482352;40;20035;-59
2021/05/29 03:35:32;;;;;;;6.68;5.50;;;14.80;56.40;;;;;;1482772;40;20377;-60
2021/05/29 03:36:53;;;;;;;6.82;5.88;;;14.90;56.50;;;;;;1481478;40;20080;-59
2021/05/29 03:38:14;;;;;;;6.25;5.65;;;14.80;56.50;;;;;;1482071;40;20089;-60
2021/05/29 03:39:35;;;;;;;11.15;5.82;;;14.80;56.50;;;;;;1482994;40;20021;-60
2021/05/29 03:40:56;;;;;;;7.63;5.38;;;14.80;56.60;;;;;;1482326;39;20033;-59
2021/05/29 03:42:17;;;;;;;7.15;4.90;;;14.80;56.60;;;;;;1483726;39;20032;-60
2021/05/29 03:43:38;;;;;;;6.40;5.15;;;14.80;56.50;;;;;;1482818;40;20068;-60
2021/05/29 03:44:59;;;;;;;7.65;5.53;;;14.80;56.50;;;;;;1481948;40;20017;-60
2021/05/29 03:46:20;;;;;;;6.85;5.43;;;14.80;56.50;;;;;;1482026;40;20041;-59
2021/05/29 03:47:41;;;;;;;5.53;5.03;;;14.80;56.60;;;;;;1479847;40;20273;-60
2021/05/29 03:49:02;;;;;;;6.43;5.38;;;14.80;56.70;;;;;;1481633;40;20048;-59
2021/05/29 03:50:26;;;;;;;7.80;5.88;;;14.80;56.70;;;;;;1482621;40;20109;-60
2021/05/29 03:51:46;;;;;;;6.25;5.57;;;14.80;56.80;;;;;;1482205;40;20062;-59
2021/05/29 03:53:08;;;;;;;6.13;5.18;;;14.80;56.80;;;;;;1482647;40;20088;-58
2021/05/29 03:54:28;;;;;;;6.30;5.68;;;14.80;56.80;;;;;;1478250;40;20081;-60
2021/05/29 03:55:50;;;;;;;6.95;5.80;;;14.80;56.80;;;;;;1478416;40;20025;-60
2021/05/29 03:57:10;;;;;;;5.57;5.00;;;14.80;56.80;;;;;;1483139;40;20091;-62
2021/05/29 03:58:31;;;;;;;6.47;5.35;;;14.80;56.80;;;;;;1482408;40;20050;-59
2021/05/29 03:59:52;;;;;;;6.90;5.40;;;14.80;56.80;;;;;;1482652;40;20033;-61
2021/05/29 04:01:13;;;;;;;6.32;5.10;;;14.70;56.80;;;;;;1481974;40;20072;-61
2021/05/29 04:02:34;;;;;;;7.03;5.53;;;14.80;56.80;;;;;;1481511;40;20025;-62
2021/05/29 04:03:55;;;;;;;6.07;5.35;;;14.80;56.90;;;;;;1483448;40;20033;-61
2021/05/29 04:05:16;;;;;;;6.25;5.13;;;14.80;57.10;;;;;;1481623;40;20027;-61
2021/05/29 04:06:38;;;;;;;5.95;5.35;;;14.80;57.10;;;;;;1480830;40;20149;-59
2021/05/29 04:07:59;;;;;;;6.03;5.13;;;14.70;57.00;;;;;;1481647;40;20518;-61
2021/05/29 04:09:20;;;;;;;6.15;5.50;;;14.80;57.10;;;;;;1479575;40;20025;-61
2021/05/29 04:10:41;;;;;;;6.28;5.65;;;14.70;57.00;;;;;;1482063;40;20311;-61
2021/05/29 04:12:02;;;;;;;5.70;5.18;;;14.80;57.10;;;;;;1481377;40;20028;-61
2021/05/29 04:13:23;;;;;;;8.05;6.28;;;14.70;57.10;;;;;;1483016;40;20446;-60
2021/05/29 04:14:43;;;;;;;7.38;6.07;;;14.70;57.10;;;;;;1482110;40;20040;-61
2021/05/29 04:16:05;;;;;;;6.78;6.07;;;14.80;57.30;;;;;;1482660;40;20036;-61
2021/05/29 04:17:26;;;;;;;6.90;5.25;;;14.80;57.40;;;;;;1481646;40;20366;-62
2021/05/29 04:18:47;;;;;;;9.38;5.82;;;14.80;57.40;;;;;;1482786;40;20044;-61
2021/05/29 04:20:10;;;;;;;6.53;5.53;;;14.70;57.30;;;;;;1482184;40;20123;-61
2021/05/29 04:21:31;;;;;;;6.45;5.57;;;14.70;57.40;;;;;;1483523;40;20032;-61
2021/05/29 04:22:52;;;;;;;7.00;5.57;;;14.70;57.30;;;;;;1483679;40;20040;-61
2021/05/29 04:24:13;;;;;;;7.78;5.95;;;14.70;57.50;;;;;;1481743;40;20106;-61
2021/05/29 04:25:34;;;;;;;7.15;5.93;;;14.70;57.50;;;;;;1482908;40;20075;-61
2021/05/29 04:26:55;;;;;;;6.68;5.72;;;14.70;57.60;;;;;;1482565;40;20323;-61
2021/05/29 04:28:16;;;;;;;7.65;5.63;;;14.70;57.60;;;;;;1483155;40;20020;-62
2021/05/29 04:29:37;;;;;;;7.03;5.97;;;14.70;57.60;;;;;;1482721;40;20032;-61
2021/05/29 04:30:58;;;;;;;8.10;6.38;;;14.70;57.70;;;;;;1482154;40;20033;-61
2021/05/29 04:32:19;;;;;;;7.18;6.22;;;14.70;57.80;;;;;;1482045;40;20029;-61
2021/05/29 04:33:40;;;;;;;7.93;5.72;;;14.70;57.80;;;;;;1482152;40;20041;-61
2021/05/29 04:35:01;;;;;;;8.05;5.90;;;14.70;57.80;;;;;;1481742;40;20044;-60
2021/05/29 04:36:22;;;;;;;7.10;6.00;;;14.70;57.90;;;;;;1481489;40;20041;-61
2021/05/29 04:37:43;;;;;;;7.88;5.93;;;14.70;58.00;;;;;;1481911;40;20117;-61
2021/05/29 04:39:04;;;;;;;7.07;5.85;;;14.70;58.00;;;;;;1483362;40;20044;-61
2021/05/29 04:40:26;;;;;;;7.45;6.50;;;14.70;58.00;;;;;;1482121;40;20105;-61
2021/05/29 04:41:47;;;;;;;8.30;6.10;;;14.70;58.10;;;;;;1481205;40;20033;-61
2021/05/29 04:43:08;;;;;;;11.10;6.50;;;14.70;58.20;;;;;;1482333;40;20080;-61
2021/05/29 04:44:29;;;;;;;6.93;6.18;;;14.70;58.20;;;;;;1483936;40;20031;-61
2021/05/29 04:45:50;;;;;;;6.78;6.05;;;14.70;58.40;;;;;;1483925;40;20121;-61
2021/05/29 04:47:11;;;;;;;7.75;6.50;;;14.70;58.50;;;;;;1480659;40;20048;-61
2021/05/29 04:48:31;;;;;;;7.85;6.32;;;14.70;58.50;;;;;;1482858;39;20036;-61
2021/05/29 04:49:53;;;;;;;8.05;6.68;;;14.70;58.60;;;;;;1481628;40;20047;-61
2021/05/29 04:51:17;;;;;;;8.73;6.45;;;14.70;58.50;;;;;;1482161;39;20126;-61
2021/05/29 04:52:38;;;;;;;8.55;5.70;;;14.80;58.60;;;;;;1481689;40;20032;-61
2021/05/29 04:53:59;;;;;;;8.43;6.28;;;14.70;58.60;;;;;;1482684;40;20032;-61
2021/05/29 04:55:21;;;;;;;7.40;6.28;;;14.70;58.60;;;;;;1481464;40;20306;-61
2021/05/29 04:56:42;;;;;;;7.82;6.45;;;14.70;58.70;;;;;;1482495;40;20376;-61
2021/05/29 04:58:03;;;;;;;7.25;6.07;;;14.80;58.90;;;;;;1482152;40;20049;-61
2021/05/29 04:59:24;;;;;;;8.50;7.20;;;14.80;59.00;;;;;;1482636;40;20091;-59
2021/05/29 05:00:44;;;;;;;10.85;7.22;;;14.80;59.00;;;;;;1480461;40;20118;-59
2021/05/29 05:02:05;;;;;;;8.80;6.32;;;14.80;59.00;;;;;;1483053;40;20032;-60
2021/05/29 05:03:26;;;;;;;8.25;6.65;;;14.80;59.00;;;;;;1483803;39;20076;-62
2021/05/29 05:04:47;;;;;;;9.07;6.75;;;14.80;59.20;;;;;;1483316;40;20036;-60
2021/05/29 05:06:08;;;;;;;8.93;7.03;;;14.80;59.20;;;;;;1482108;40;20041;-61
2021/05/29 05:07:29;;;;;;;7.72;6.38;;;14.90;59.30;;;;;;1482813;40;20036;-61
2021/05/29 05:08:50;;;;;;;8.38;6.28;;;14.90;59.40;;;;;;1480752;40;20064;-61
2021/05/29 05:10:12;;;;;;;9.20;6.30;;;14.90;59.50;;;;;;1482112;40;20029;-59
2021/05/29 05:11:34;;;;;;;7.00;6.10;;;14.90;59.40;;;;;;1482467;40;20025;-61
2021/05/29 05:12:55;;;;;;;9.90;6.93;;;14.90;59.40;;;;;;1483090;40;20374;-61
2021/05/29 05:14:17;;;;;;;11.10;6.90;;;14.90;59.50;;;;;;1482909;40;20021;-59
2021/05/29 05:15:38;;;;;;;7.07;6.30;;;14.90;59.60;;;;;;1482426;40;20615;-61
2021/05/29 05:16:58;;;;;;;8.52;6.70;;;15.00;59.60;;;;;;1481273;40;20586;-61
2021/05/29 05:18:21;;;;;;;10.65;6.72;;;15.00;59.60;;;;;;1482171;40;20032;-61
2021/05/29 05:19:42;;;;;;;8.63;6.32;;;15.00;59.60;;;;;;1481150;40;20035;-61
2021/05/29 05:21:03;;;;;;;6.55;5.95;;;15.00;59.60;;;;;;1481593;40;20045;-61
2021/05/29 05:22:24;;;;;;;7.75;6.78;;;15.00;59.70;;;;;;1482866;40;20239;-61
2021/05/29 05:23:47;;;;;;;7.97;6.63;;;15.10;59.80;;;;;;1483456;40;20033;-61
2021/05/29 05:25:09;;;;;;;8.98;6.95;;;15.10;59.80;;;;;;1483382;40;20369;-61
2021/05/29 05:26:30;;;;;;;7.30;6.38;;;15.10;59.90;;;;;;1481581;40;20028;-61
2021/05/29 05:27:50;;;;;;;7.30;6.30;;;15.10;59.90;;;;;;1483041;40;20094;-60
2021/05/29 05:29:11;;;;;;;8.15;6.90;;;15.10;59.90;;;;;;1481767;40;20034;-60
2021/05/29 05:30:32;;;;;;;8.93;7.45;;;15.20;60.10;;;;;;1481832;40;20032;-61
2021/05/29 05:31:54;;;;;;;9.82;7.40;;;15.20;60.10;;;;;;1483384;40;20053;-61
2021/05/29 05:33:16;;;;;;;8.15;7.03;;;15.20;60.10;;;;;;1482903;40;20032;-60
2021/05/29 05:34:36;;;;;;;8.63;7.30;;;15.20;60.10;;;;;;1481567;40;20017;-61
2021/05/29 05:35:57;;;;;;;9.18;7.40;;;15.30;60.20;;;;;;1482556;40;20037;-60
2021/05/29 05:37:18;;;;;;;8.50;7.05;;;15.30;60.20;;;;;;1482520;40;20036;-60
2021/05/29 05:38:41;;;;;;;8.90;7.03;;;15.30;60.30;;;;;;1482688;40;20032;-61
2021/05/29 05:40:04;;;;;;;8.40;6.43;;;15.30;60.30;;;;;;1482245;40;20125;-60
2021/05/29 05:41:25;;;;;;;8.40;6.70;;;15.30;60.20;;;;;;1482101;40;20035;-61
2021/05/29 05:42:46;;;;;;;7.78;6.97;;;15.40;60.20;;;;;;1482779;40;20102;-60
2021/05/29 05:44:08;;;;;;;8.68;6.88;;;15.40;60.20;;;;;;1481623;40;20029;-61
2021/05/29 05:45:28;;;;;;;10.20;7.40;;;15.40;60.10;;;;;;1483809;40;20114;-61
2021/05/29 05:46:50;;;;;;;7.28;6.47;;;15.40;60.10;;;;;;1482978;40;20109;-61
2021/05/29 05:48:11;;;;;;;7.25;6.55;;;15.50;60.20;;;;;;1481399;40;20030;-61
2021/05/29 05:49:32;;;;;;;9.30;6.30;;;15.40;60.90;;;;;;1484266;40;20064;-60
2021/05/29 05:50:58;;;;;;;7.05;6.20;;;15.50;60.20;;;;;;1481579;40;20052;-61
2021/05/29 05:52:19;;;;;;;7.80;5.97;;;15.50;60.10;;;;;;1481769;40;20040;-60
2021/05/29 05:53:39;;;;;;;8.77;7.00;;;15.50;60.00;;;;;;1480380;40;20076;-61
2021/05/29 05:55:00;;;;;;;9.48;6.80;;;15.60;59.90;;;;;;1482554;40;20024;-61
2021/05/29 05:56:27;;;;;;;9.77;7.10;;;15.60;60.00;;;;;;1481812;40;20103;-60
2021/05/29 05:57:48;;;;;;;7.90;6.70;;;15.60;60.00;;;;;;1482702;40;20055;-61
2021/05/29 05:59:09;;;;;;;7.65;6.53;;;15.60;60.10;;;;;;1481934;40;20087;-60
2021/05/29 06:00:31;;;;;;;7.28;6.53;;;15.60;60.10;;;;;;1483047;40;20032;-60
2021/05/29 06:01:52;;;;;;;7.30;6.25;;;15.60;60.00;;;;;;1482357;40;20029;-61
2021/05/29 06:03:13;;;;;;;7.13;6.43;;;15.70;60.10;;;;;;1486455;40;20036;-61
2021/05/29 06:04:33;;;;;;;7.25;6.55;;;15.70;60.10;;;;;;1484274;39;20040;-60
2021/05/29 06:05:55;;;;;;;6.85;6.15;;;15.70;60.00;;;;;;1480554;40;20018;-61
2021/05/29 06:07:16;;;;;;;8.68;6.60;;;15.80;60.10;;;;;;1482157;40;20051;-61
2021/05/29 06:08:37;;;;;;;9.02;6.25;;;15.70;60.00;;;;;;1483584;40;20036;-60
2021/05/29 06:09:58;;;;;;;8.18;6.45;;;15.80;60.10;;;;;;1476011;40;20066;-61
2021/05/29 06:11:19;;;;;;;8.38;6.47;;;15.80;60.00;;;;;;1481733;40;20082;-59
2021/05/29 06:12:44;;;;;;;9.82;6.93;;;15.90;60.00;;;;;;1482913;40;20071;-60
2021/05/29 06:20:10;;;;;;;8.35;6.00;;;16.00;59.80;;;;;;1483013;40;20033;-61
2021/05/29 06:21:31;;;;;;;9.70;6.28;;;16.00;59.80;;;;;;1481732;40;20029;-61
2021/05/29 06:22:52;;;;;;;7.57;6.13;;;16.00;59.80;;;;;;1479507;40;20057;-62
2021/05/29 06:24:16;;;;;;;10.68;6.32;;;16.00;59.80;;;;;;1480975;40;20174;-61
2021/05/29 06:25:37;;;;;;;7.45;6.47;;;16.10;59.80;;;;;;1484045;40;20029;-60
2021/05/29 06:26:58;;;;;;;7.75;6.13;;;16.10;59.80;;;;;;1482791;40;20053;-60
2021/05/29 06:28:19;;;;;;;8.23;6.70;;;16.10;59.70;;;;;;1481720;40;20037;-59
2021/05/29 06:29:39;;;;;;;6.68;5.97;;;16.10;59.70;;;;;;1483406;39;20040;-59
2021/05/29 06:31:00;;;;;;;7.90;5.90;;;16.20;59.80;;;;;;1480729;40;20597;-59
2021/05/29 06:32:21;;;;;;;8.82;6.53;;;16.20;59.90;;;;;;1482190;40;20037;-59
2021/05/29 06:33:42;;;;;;;7.10;6.15;;;16.20;59.80;;;;;;1480417;40;20029;-60
2021/05/29 06:35:04;;;;;;;7.65;5.95;;;16.30;59.80;;;;;;1481876;40;20032;-59
2021/05/29 06:36:25;;;;;;;10.15;6.88;;;16.30;59.80;;;;;;1476948;40;20528;-60
2021/05/29 06:37:46;;;;;;;7.43;6.68;;;16.30;59.80;;;;;;1480665;40;20024;-60
2021/05/29 06:39:07;;;;;;;6.95;6.10;;;16.30;59.80;;;;;;1481296;40;20029;-60
2021/05/29 06:40:28;;;;;;;6.75;6.13;;;16.40;59.80;;;;;;1478350;40;20279;-59
2021/05/29 06:41:49;;;;;;;10.85;6.82;;;16.40;59.80;;;;;;1479906;40;20036;-59
2021/05/29 06:43:10;;;;;;;7.90;5.68;;;16.40;59.80;;;;;;1482603;40;20036;-59
2021/05/29 06:44:31;;;;;;;7.82;5.85;;;16.50;59.80;;;;;;1480993;40;20028;-60
2021/05/29 06:45:52;;;;;;;6.78;6.00;;;16.50;59.90;;;;;;1483364;40;20055;-60
2021/05/29 06:47:13;;;;;;;8.00;6.53;;;16.50;59.90;;;;;;1480101;40;20029;-60
2021/05/29 06:48:34;;;;;;;8.80;5.80;;;16.60;59.90;;;;;;1482644;40;20056;-60
2021/05/29 06:49:55;;;;;;;7.30;5.28;;;16.60;59.80;;;;;;1481855;40;20056;-59
2021/05/29 06:51:30;;;;;;;10.43;6.32;;;16.60;59.60;;;;;;1480596;40;20048;-59
2021/05/29 06:52:56;;;;;;;6.60;5.45;;;16.60;59.50;;;;;;1480021;40;20057;-59
2021/05/29 06:54:25;;;;;;;6.95;5.25;;;16.70;59.50;;;;;;1482406;40;20239;-60
2021/05/29 06:59:04;;;;;;;7.63;5.32;;;16.80;59.40;;;;;;1483619;40;20042;-59
2021/05/29 07:00:25;;;;;;;7.03;5.57;;;16.80;59.30;;;;;;1481546;40;20029;-60
2021/05/29 07:01:46;;;;;;;9.52;5.35;;;16.90;59.50;;;;;;1482411;40;20032;-60
2021/05/29 07:03:07;;;;;;;11.43;5.90;;;16.90;59.40;;;;;;1483397;40;20044;-60
2021/05/29 07:04:28;;;;;;;9.30;5.50;;;16.90;59.30;;;;;;1481440;40;20013;-59
2021/05/29 07:05:49;;;;;;;7.47;5.65;;;17.00;59.30;;;;;;1482829;40;20041;-59
2021/05/29 07:07:10;;;;;;;6.57;4.93;;;17.00;59.20;;;;;;1482326;40;20118;-59
2021/05/29 07:08:30;;;;;;;6.57;4.82;;;17.00;59.20;;;;;;1478461;40;20325;-59
2021/05/29 07:09:51;;;;;;;5.53;4.80;;;17.00;59.20;;;;;;1480971;40;20332;-61
2021/05/29 07:11:13;;;;;;;5.85;4.38;;;17.10;59.20;;;;;;1481361;40;20087;-59
2021/05/29 07:12:34;;;;;;;7.20;5.18;;;17.10;59.10;;;;;;1481843;40;20378;-59
2021/05/29 07:13:55;;;;;;;6.45;5.18;;;17.20;59.10;;;;;;1481538;40;20087;-61